sensor_id;sensor_type;location;lat;lon;timestamp;P1;P2;P0
74440;PMS7003;62870;54.692;25.284;2024-02-21T00:04:43;0.4;0.4;0.4
74440;PMS7003;62870;54.692;25.284;2024-02-21T00:09:38;1.2;1;1
74440;PMS7003;62870;54.692;25.284;2024-02-21T00:14:14;1;0.6;0.6
74440;PMS7003;62870;54.692;25.284;2024-02-21T00:19:28;1.4;0.8;0.4
74440;PMS7003;62870;54.692;25.284;2024-02-21T00:25:03;1.6;1.2;1
74440;PMS7003;62870;54.692;25.284;2024-02-21T00:29:12;1.6;1.2;1
74440;PMS7003;62870;54.692;25.284;2024-02-21T00:34:34;1;0.8;0.6
74440;PMS7003;62870;54.692;25.284;2024-02-21T00:40:03;1;1;0.5
74440;PMS7003;62870;54.692;25.284;2024-02-21T00:44:24;1;1;0.5
74440;PMS7003;62870;54.692;25.284;2024-02-21T00:49:12;1.4;1.2;1
74440;PMS7003;62870;54.692;25.284;2024-02-21T00:54:32;0.6;0.6;0.4
74440;PMS7003;62870;54.692;25.284;2024-02-21T00:59:12;1;1;1
74440;PMS7003;62870;54.692;25.284;2024-02-21T01:04:12;0.8;0.8;0.2
74440;PMS7003;62870;54.692;25.284;2024-02-21T01:10:03;1.6;1.4;1.2
74440;PMS7003;62870;54.692;25.284;2024-02-21T01:14:13;1.6;1.4;1.2
74440;PMS7003;62870;54.692;25.284;2024-02-21T01:20:03;1.6;1.4;1
74440;PMS7003;62870;54.692;25.284;2024-02-21T01:24:30;1.6;1.4;1
74440;PMS7003;62870;54.692;25.284;2024-02-21T01:30:03;2;1.4;1.2
74440;PMS7003;62870;54.692;25.284;2024-02-21T01:34:48;2;1.4;1.2
74440;PMS7003;62870;54.692;25.284;2024-02-21T01:39:15;2;1.6;1.6
74440;PMS7003;62870;54.692;25.284;2024-02-21T01:44:13;2;2;1.3
74440;PMS7003;62870;54.692;25.284;2024-02-21T01:49:53;1.6;1.4;1
74440;PMS7003;62870;54.692;25.284;2024-02-21T01:54:13;1.8;1.8;1.2
74440;PMS7003;62870;54.692;25.284;2024-02-21T02:00:03;2.2;2.2;1.2
74440;PMS7003;62870;54.692;25.284;2024-02-21T02:04:28;2.2;2.2;1.2
74440;PMS7003;62870;54.692;25.284;2024-02-21T02:09:43;1.6;1.6;1.4
74440;PMS7003;62870;54.692;25.284;2024-02-21T02:15:03;2.4;2.2;1.8
74440;PMS7003;62870;54.692;25.284;2024-02-21T02:19:13;2.4;2.2;1.8
74440;PMS7003;62870;54.692;25.284;2024-02-21T02:24:43;2;2;1.6
74440;PMS7003;62870;54.692;25.284;2024-02-21T02:29:32;1.8;1.4;1.4
74440;PMS7003;62870;54.692;25.284;2024-02-21T02:34:38;2.4;2.4;1.8
74440;PMS7003;62870;54.692;25.284;2024-02-21T02:39:13;2.4;2;1.6
74440;PMS7003;62870;54.692;25.284;2024-02-21T02:45:03;1.8;1.8;1.8
74440;PMS7003;62870;54.692;25.284;2024-02-21T02:49:33;1.8;1.8;1.8
74440;PMS7003;62870;54.692;25.284;2024-02-21T02:54:53;2.6;2.6;2
74440;PMS7003;62870;54.692;25.284;2024-02-21T02:59:45;2.8;2.6;1.8
74440;PMS7003;62870;54.692;25.284;2024-02-21T03:04:25;2;2;1.6
74440;PMS7003;62870;54.692;25.284;2024-02-21T03:09:49;2.8;2.2;1.6
74440;PMS7003;62870;54.692;25.284;2024-02-21T03:14:23;3;2.4;1.8
74440;PMS7003;62870;54.692;25.284;2024-02-21T03:20:03;2.4;2.2;2
74440;PMS7003;62870;54.692;25.284;2024-02-21T03:25:03;3.2;3.2;2.6
74440;PMS7003;62870;54.692;25.284;2024-02-21T03:29:49;3.2;3.2;2.6
74440;PMS7003;62870;54.692;25.284;2024-02-21T03:35:03;3.2;2.4;2
74440;PMS7003;62870;54.692;25.284;2024-02-21T03:40:06;3.5;3;2.3
74440;PMS7003;62870;54.692;25.284;2024-02-21T03:44:23;3.5;3;2.3
74440;PMS7003;62870;54.692;25.284;2024-02-21T03:50:01;3.8;3;2.6
74440;PMS7003;62870;54.692;25.284;2024-02-21T03:54:13;3.2;2.8;2.2
74440;PMS7003;62870;54.692;25.284;2024-02-21T03:59:21;3.6;3.2;2.4
74440;PMS7003;62870;54.692;25.284;2024-02-21T04:04:42;4.4;3.4;2.4
74440;PMS7003;62870;54.692;25.284;2024-02-21T04:09:39;3.6;3.2;2.8
74440;PMS7003;62870;54.692;25.284;2024-02-21T04:14:13;4.2;3.8;2.6
74440;PMS7003;62870;54.692;25.284;2024-02-21T04:19:33;3;3;2.4
74440;PMS7003;62870;54.692;25.284;2024-02-21T04:24:53;3.4;3.4;2.6
74440;PMS7003;62870;54.692;25.284;2024-02-21T04:30:03;3;3;2.6
74440;PMS7003;62870;54.692;25.284;2024-02-21T04:34:31;3;3;2.6
74440;PMS7003;62870;54.692;25.284;2024-02-21T04:39:43;3.8;3.4;2.6
74440;PMS7003;62870;54.692;25.284;2024-02-21T04:45:03;3.3;3;2.3
74440;PMS7003;62870;54.692;25.284;2024-02-21T04:49:53;3.3;3;2.3
74440;PMS7003;62870;54.692;25.284;2024-02-21T04:54:49;2.4;2.4;1.8
74440;PMS7003;62870;54.692;25.284;2024-02-21T04:59:39;4;3.2;2.8
74440;PMS7003;62870;54.692;25.284;2024-02-21T05:04:31;2.2;2.2;2
74440;PMS7003;62870;54.692;25.284;2024-02-21T05:09:13;3.6;3;2.4
74440;PMS7003;62870;54.692;25.284;2024-02-21T05:15:03;4;3.4;2.4
74440;PMS7003;62870;54.692;25.284;2024-02-21T05:19:13;4;3.4;2.4
74440;PMS7003;62870;54.692;25.284;2024-02-21T05:24:47;2.4;2.2;1.8
74440;PMS7003;62870;54.692;25.284;2024-02-21T05:29:13;2.8;2.4;1.8
74440;PMS7003;62870;54.692;25.284;2024-02-21T05:34:59;2.8;2.6;2
74440;PMS7003;62870;54.692;25.284;2024-02-21T05:39:47;2.4;2.4;1.8
74440;PMS7003;62870;54.692;25.284;2024-02-21T05:44:21;2.6;2.2;1.4
74440;PMS7003;62870;54.692;25.284;2024-02-21T05:49:31;3;2;1.8
74440;PMS7003;62870;54.692;25.284;2024-02-21T05:54:13;2.8;2.6;1.8
74440;PMS7003;62870;54.692;25.284;2024-02-21T05:59:21;2.4;2.2;1.6
74440;PMS7003;62870;54.692;25.284;2024-02-21T06:05:01;2.6;2.2;1.6
74440;PMS7003;62870;54.692;25.284;2024-02-21T06:10:01;2.6;2.2;1.4
74440;PMS7003;62870;54.692;25.284;2024-02-21T06:14:21;2.6;2;1.6
74440;PMS7003;62870;54.692;25.284;2024-02-21T06:19:51;2.4;2.2;2.2
74440;PMS7003;62870;54.692;25.284;2024-02-21T06:24:51;2.8;2;1
74440;PMS7003;62870;54.692;25.284;2024-02-21T06:29:47;2.6;2.6;1.8
74440;PMS7003;62870;54.692;25.284;2024-02-21T06:34:29;2.6;2.4;1.8
74440;PMS7003;62870;54.692;25.284;2024-02-21T06:39:47;2.6;2.4;1.6
74440;PMS7003;62870;54.692;25.284;2024-02-21T06:44:37;3.4;3;2.2
74440;PMS7003;62870;54.692;25.284;2024-02-21T06:50:01;2.5;2.5;1.8
74440;PMS7003;62870;54.692;25.284;2024-02-21T06:54:39;3.6;2.4;1.8
74440;PMS7003;62870;54.692;25.284;2024-02-21T06:59:47;2.4;2.4;1.8
74440;PMS7003;62870;54.692;25.284;2024-02-21T07:04:43;3.6;3.2;2.2
74440;PMS7003;62870;54.692;25.284;2024-02-21T07:10:01;3.6;3.6;2.6
74440;PMS7003;62870;54.692;25.284;2024-02-21T07:14:29;3.6;3.2;2.4
74440;PMS7003;62870;54.692;25.284;2024-02-21T07:19:19;3.2;2.8;2
74440;PMS7003;62870;54.692;25.284;2024-02-21T07:24:39;2.4;2.4;1.6
74440;PMS7003;62870;54.692;25.284;2024-02-21T07:29:13;3.4;3.2;2.2
74440;PMS7003;62870;54.692;25.284;2024-02-21T07:34:21;3;2.4;2
74440;PMS7003;62870;54.692;25.284;2024-02-21T07:40:01;3.8;3.2;2.2
74440;PMS7003;62870;54.692;25.284;2024-02-21T07:45:01;3.4;3.2;2.4
74440;PMS7003;62870;54.692;25.284;2024-02-21T07:49:43;2.8;2.8;2.3
74440;PMS7003;62870;54.692;25.284;2024-02-21T07:54:51;3.2;3;2.2
74440;PMS7003;62870;54.692;25.284;2024-02-21T07:59:13;3.4;3.4;2.4
74440;PMS7003;62870;54.692;25.284;2024-02-21T08:04:47;3;2.8;2.4
74440;PMS7003;62870;54.692;25.284;2024-02-21T08:09:39;3.6;3.6;2.6
74440;PMS7003;62870;54.692;25.284;2024-02-21T08:15:01;3.2;2.8;2.2
74440;PMS7003;62870;54.692;25.284;2024-02-21T08:19:13;3.6;3.2;2.4
74440;PMS7003;62870;54.692;25.284;2024-02-21T08:24:15;4.4;3.8;3
74440;PMS7003;62870;54.692;25.284;2024-02-21T08:29:21;4;3.8;2.8
74440;PMS7003;62870;54.692;25.284;2024-02-21T08:35:01;4.4;4;3.2
74440;PMS7003;62870;54.692;25.284;2024-02-21T08:39:43;4;4;2.8
74440;PMS7003;62870;54.692;25.284;2024-02-21T08:44:44;4.4;4;3
74440;PMS7003;62870;54.692;25.284;2024-02-21T08:50:01;4.8;4;2.8
74440;PMS7003;62870;54.692;25.284;2024-02-21T08:54:33;3.8;3.8;3
74440;PMS7003;62870;54.692;25.284;2024-02-21T08:59:13;4.4;3.6;2.8
74440;PMS7003;62870;54.692;25.284;2024-02-21T09:04:13;3.6;3.6;2.8
74440;PMS7003;62870;54.692;25.284;2024-02-21T09:09:33;4.8;3.8;3
74440;PMS7003;62870;54.692;25.284;2024-02-21T09:14:21;4.4;3.8;3.2
74440;PMS7003;62870;54.692;25.284;2024-02-21T09:19:53;4;3.8;2.8
74440;PMS7003;62870;54.692;25.284;2024-02-21T09:24:39;4;3.4;2.8
74440;PMS7003;62870;54.692;25.284;2024-02-21T09:30:01;2.8;2.8;2.4
74440;PMS7003;62870;54.692;25.284;2024-02-21T09:34:43;3.8;3.8;2.8
74440;PMS7003;62870;54.692;25.284;2024-02-21T09:39:51;3.4;3.4;2.6
74440;PMS7003;62870;54.692;25.284;2024-02-21T09:44:30;3.2;3;2.4
74440;PMS7003;62870;54.692;25.284;2024-02-21T09:50:01;4;3.8;3.2
74440;PMS7003;62870;54.692;25.284;2024-02-21T09:55:01;3.3;3;2.5
74440;PMS7003;62870;54.692;25.284;2024-02-21T10:00:01;3.8;3.6;2.8
74440;PMS7003;62870;54.692;25.284;2024-02-21T10:04:47;4.4;3.6;2.8
74440;PMS7003;62870;54.692;25.284;2024-02-21T10:10:01;3.6;3.4;2.6
74440;PMS7003;62870;54.692;25.284;2024-02-21T10:15:01;4.2;3.8;3.2
74440;PMS7003;62870;54.692;25.284;2024-02-21T10:19:43;3.6;3.6;2.2
74440;PMS7003;62870;54.692;25.284;2024-02-21T10:24:45;4;3.4;3
74440;PMS7003;62870;54.692;25.284;2024-02-21T10:29:21;3.4;3;2.6
74440;PMS7003;62870;54.692;25.284;2024-02-21T10:34:49;4;4;3
74440;PMS7003;62870;54.692;25.284;2024-02-21T10:39:13;3.8;3.4;2.6
74440;PMS7003;62870;54.692;25.284;2024-02-21T10:44:39;4.2;3.4;3
74440;PMS7003;62870;54.692;25.284;2024-02-21T10:49:22;4.4;4.2;2.6
74440;PMS7003;62870;54.692;25.284;2024-02-21T10:54:21;3.8;3.8;2.8
74440;PMS7003;62870;54.692;25.284;2024-02-21T10:59:13;3.4;3.2;3
74440;PMS7003;62870;54.692;25.284;2024-02-21T11:05:03;4.2;4;2.8
74440;PMS7003;62870;54.692;25.284;2024-02-21T11:10:03;4.6;4;2.8
74440;PMS7003;62870;54.692;25.284;2024-02-21T11:14:21;4.6;4;2.8
74440;PMS7003;62870;54.692;25.284;2024-02-21T11:20:10;4.6;4.2;3.8
74440;PMS7003;62870;54.692;25.284;2024-02-21T11:24:53;4.6;4.2;3.8
74440;PMS7003;62870;54.692;25.284;2024-02-21T11:30:04;5.4;5;3.8
74440;PMS7003;62870;54.692;25.284;2024-02-21T11:35:03;5.4;5;4.2
74440;PMS7003;62870;54.692;25.284;2024-02-21T11:39:23;5.4;5;4.2
74440;PMS7003;62870;54.692;25.284;2024-02-21T11:45:03;4.6;4.2;3.6
74440;PMS7003;62870;54.692;25.284;2024-02-21T11:49:37;4.6;4.2;3.6
74440;PMS7003;62870;54.692;25.284;2024-02-21T11:54:41;4.8;4;3
74440;PMS7003;62870;54.692;25.284;2024-02-21T11:59:51;4.6;4.6;3.6
74440;PMS7003;62870;54.692;25.284;2024-02-21T12:04:29;4.2;4.2;3.4
74440;PMS7003;62870;54.692;25.284;2024-02-21T12:09:31;3.8;3.8;3
74440;PMS7003;62870;54.692;25.284;2024-02-21T12:14:15;4.2;4.2;3.2
74440;PMS7003;62870;54.692;25.284;2024-02-21T12:19:53;4.4;4.4;3.4
74440;PMS7003;62870;54.692;25.284;2024-02-21T12:25:03;4.6;4.4;3.8
74440;PMS7003;62870;54.692;25.284;2024-02-21T12:29:13;4.6;4.4;3.8
74440;PMS7003;62870;54.692;25.284;2024-02-21T12:34:31;4.4;4;3.2
74440;PMS7003;62870;54.692;25.284;2024-02-21T12:40:01;3.6;3.2;3
74440;PMS7003;62870;54.692;25.284;2024-02-21T12:44:35;4;3.8;2.6
74440;PMS7003;62870;54.692;25.284;2024-02-21T12:49:33;3.6;3.4;2.4
74440;PMS7003;62870;54.692;25.284;2024-02-21T12:55:03;3.8;3;2.4
74440;PMS7003;62870;54.692;25.284;2024-02-21T12:59:53;3.8;3;2.4
74440;PMS7003;62870;54.692;25.284;2024-02-21T13:04:15;4.4;3.2;2.4
74440;PMS7003;62870;54.692;25.284;2024-02-21T13:09:39;3.2;2.6;2
74440;PMS7003;62870;54.692;25.284;2024-02-21T13:14:15;2.6;2.4;2.2
74440;PMS7003;62870;54.692;25.284;2024-02-21T13:19:49;3.4;3.2;2.2
74440;PMS7003;62870;54.692;25.284;2024-02-21T13:25:03;2.8;2.8;2
74440;PMS7003;62870;54.692;25.284;2024-02-21T13:29:21;2.8;2.8;2
74440;PMS7003;62870;54.692;25.284;2024-02-21T13:34:49;3;2.8;2.2
74440;PMS7003;62870;54.692;25.284;2024-02-21T13:39:29;2.6;2.6;1.8
74440;PMS7003;62870;54.692;25.284;2024-02-21T13:45:03;3.2;2.4;1.8
74440;PMS7003;62870;54.692;25.284;2024-02-21T13:49:13;3.2;2.4;1.8
74440;PMS7003;62870;54.692;25.284;2024-02-21T13:54:27;2.4;2.4;1.8
74440;PMS7003;62870;54.692;25.284;2024-02-21T13:59:21;2;2;1.3
74440;PMS7003;62870;54.692;25.284;2024-02-21T14:04:53;2.4;2.4;2
74440;PMS7003;62870;54.692;25.284;2024-02-21T14:09:39;3;3;2
74440;PMS7003;62870;54.692;25.284;2024-02-21T14:14:53;2.2;1.8;1.6
74440;PMS7003;62870;54.692;25.284;2024-02-21T14:20:03;3.4;2.2;1.8
74440;PMS7003;62870;54.692;25.284;2024-02-21T14:24:13;3.4;2.2;1.8
74440;PMS7003;62870;54.692;25.284;2024-02-21T14:29:53;2.4;2.4;1.6
74440;PMS7003;62870;54.692;25.284;2024-02-21T14:34:45;2;1.6;1.6
74440;PMS7003;62870;54.692;25.284;2024-02-21T14:39:49;2.2;1.8;1.2
74440;PMS7003;62870;54.692;25.284;2024-02-21T14:44:31;1.4;1.2;1
74440;PMS7003;62870;54.692;25.284;2024-02-21T14:49:53;2.2;1.8;1.6
74440;PMS7003;62870;54.692;25.284;2024-02-21T14:54:13;2.2;2;1.8
74440;PMS7003;62870;54.692;25.284;2024-02-21T14:59:53;1.8;1.8;1.3
74440;PMS7003;62870;54.692;25.284;2024-02-21T15:04:43;2.6;2;1.2
74440;PMS7003;62870;54.692;25.284;2024-02-21T15:10:03;2;1.8;1.2
74440;PMS7003;62870;54.692;25.284;2024-02-21T15:14:13;2;1.8;1.2
74440;PMS7003;62870;54.692;25.284;2024-02-21T15:19:53;2.6;2.2;1.8
74440;PMS7003;62870;54.692;25.284;2024-02-21T15:25:01;2.4;1.8;1.4
74440;PMS7003;62870;54.692;25.284;2024-02-21T15:29:41;2;2;1.4
74440;PMS7003;62870;54.692;25.284;2024-02-21T15:34:27;2.2;2;1.6
74440;PMS7003;62870;54.692;25.284;2024-02-21T15:39:21;2.6;2.4;1.4
74440;PMS7003;62870;54.692;25.284;2024-02-21T15:44:25;3;2.6;2
74440;PMS7003;62870;54.692;25.284;2024-02-21T15:49:41;2.2;2.2;2
74440;PMS7003;62870;54.692;25.284;2024-02-21T15:55:03;2.5;1.8;1.3
74440;PMS7003;62870;54.692;25.284;2024-02-21T15:59:25;2.5;1.8;1.3
74440;PMS7003;62870;54.692;25.284;2024-02-21T16:05:03;2.4;2.4;1.6
74440;PMS7003;62870;54.692;25.284;2024-02-21T16:09:15;2.4;2.4;1.6
74440;PMS7003;62870;54.692;25.284;2024-02-21T16:15:03;3;2.6;2
74440;PMS7003;62870;54.692;25.284;2024-02-21T16:19:49;3;2.6;2
74440;PMS7003;62870;54.692;25.284;2024-02-21T16:24:55;1.4;1.4;1
74440;PMS7003;62870;54.692;25.284;2024-02-21T16:29:47;2.6;2.6;2
74440;PMS7003;62870;54.692;25.284;2024-02-21T16:34:55;2.6;2.4;1.8
74440;PMS7003;62870;54.692;25.284;2024-02-21T16:39:29;2.6;2.6;2.4
74440;PMS7003;62870;54.692;25.284;2024-02-21T16:44:45;4;3.8;2.8
74440;PMS7003;62870;54.692;25.284;2024-02-21T16:49:37;3.8;3.4;2.4
74440;PMS7003;62870;54.692;25.284;2024-02-21T16:54:37;3.8;3.6;2.6
74440;PMS7003;62870;54.692;25.284;2024-02-21T17:00:05;4.2;4;3.6
74440;PMS7003;62870;54.692;25.284;2024-02-21T17:04:13;4.2;4;3.6
74440;PMS7003;62870;54.692;25.284;2024-02-21T17:09:21;4;3.8;2.8
74440;PMS7003;62870;54.692;25.284;2024-02-21T17:15:01;6;5;3.8
74440;PMS7003;62870;54.692;25.284;2024-02-21T17:19:21;6;4.8;3.6
74440;PMS7003;62870;54.692;25.284;2024-02-21T17:24:41;4.6;4.4;3.6
74440;PMS7003;62870;54.692;25.284;2024-02-21T17:30:05;4.4;3.8;3
74440;PMS7003;62870;54.692;25.284;2024-02-21T17:34:35;4.4;3.8;3
74440;PMS7003;62870;54.692;25.284;2024-02-21T17:40:05;5.2;5;4
74440;PMS7003;62870;54.692;25.284;2024-02-21T17:44:45;5.2;5;4
74440;PMS7003;62870;54.692;25.284;2024-02-21T17:50:05;6.4;5.2;3.8
74440;PMS7003;62870;54.692;25.284;2024-02-21T17:54:39;6.4;5.2;3.8
74440;PMS7003;62870;54.692;25.284;2024-02-21T17:59:55;5.3;4.8;3.8
74440;PMS7003;62870;54.692;25.284;2024-02-21T18:05:05;6.2;5.4;4.4
74440;PMS7003;62870;54.692;25.284;2024-02-21T18:10:05;5;4.4;3.6
74440;PMS7003;62870;54.692;25.284;2024-02-21T18:14:49;5;4.4;3.6
74440;PMS7003;62870;54.692;25.284;2024-02-21T18:20:05;4.8;4.4;3.8
74440;PMS7003;62870;54.692;25.284;2024-02-21T18:25:05;4.6;4.6;3.2
74440;PMS7003;62870;54.692;25.284;2024-02-21T18:29:45;4.6;4.6;3.2
74440;PMS7003;62870;54.692;25.284;2024-02-21T18:34:57;4.6;4;3.2
74440;PMS7003;62870;54.692;25.284;2024-02-21T18:39:13;5;4.8;4
74440;PMS7003;62870;54.692;25.284;2024-02-21T18:44:13;4;4;2.8
74440;PMS7003;62870;54.692;25.284;2024-02-21T18:49:48;3.8;3.6;2.8
74440;PMS7003;62870;54.692;25.284;2024-02-21T18:54:21;3.6;3.4;2.8
74440;PMS7003;62870;54.692;25.284;2024-02-21T18:59:29;4;3.8;3
74440;PMS7003;62870;54.692;25.284;2024-02-21T19:04:25;3.5;3.3;3
74440;PMS7003;62870;54.692;25.284;2024-02-21T19:09:35;3.8;3.2;2.4
74440;PMS7003;62870;54.692;25.284;2024-02-21T19:15:03;3.6;3;2.4
74440;PMS7003;62870;54.692;25.284;2024-02-21T19:19:41;3.6;3;2.4
74440;PMS7003;62870;54.692;25.284;2024-02-21T19:24:35;3.4;3.2;2.2
74440;PMS7003;62870;54.692;25.284;2024-02-21T19:30:06;3;2.8;2.2
74440;PMS7003;62870;54.692;25.284;2024-02-21T19:34:45;3;2.8;2.2
74440;PMS7003;62870;54.692;25.284;2024-02-21T19:40:06;3;3;2.2
74440;PMS7003;62870;54.692;25.284;2024-02-21T19:44:39;3;3;2.2
74440;PMS7003;62870;54.692;25.284;2024-02-21T19:49:49;3.4;3.2;2.8
74440;PMS7003;62870;54.692;25.284;2024-02-21T19:54:39;3;2.6;2.2
74440;PMS7003;62870;54.692;25.284;2024-02-21T20:00:05;3.8;3.3;2.5
74440;PMS7003;62870;54.692;25.284;2024-02-21T20:04:13;3.8;3.3;2.5
74440;PMS7003;62870;54.692;25.284;2024-02-21T20:09:49;2.8;2.6;2.2
74440;PMS7003;62870;54.692;25.284;2024-02-21T20:14:21;2.6;2.4;2
74440;PMS7003;62870;54.692;25.284;2024-02-21T20:20:05;2.6;2.6;2
74440;PMS7003;62870;54.692;25.284;2024-02-21T20:24:13;2.6;2.6;2
74440;PMS7003;62870;54.692;25.284;2024-02-21T20:29:31;3.2;2.8;2.2
74440;PMS7003;62870;54.692;25.284;2024-02-21T20:34:49;1.8;1.6;1.2
74440;PMS7003;62870;54.692;25.284;2024-02-21T20:39:55;2.2;2;1
74440;PMS7003;62870;54.692;25.284;2024-02-21T20:44:43;1.6;1.6;1.2
74440;PMS7003;62870;54.692;25.284;2024-02-21T20:50:05;2.8;2.2;2
74440;PMS7003;62870;54.692;25.284;2024-02-21T20:55:05;1.2;1.2;1
74440;PMS7003;62870;54.692;25.284;2024-02-21T20:59:37;1.2;1.2;1
74440;PMS7003;62870;54.692;25.284;2024-02-21T21:04:53;2;2;1.5
74440;PMS7003;62870;54.692;25.284;2024-02-21T21:09:27;2.2;1.8;1.6
74440;PMS7003;62870;54.692;25.284;2024-02-21T21:14:47;1.4;1.4;1.4
74440;PMS7003;62870;54.692;25.284;2024-02-21T21:19:37;1.6;1.6;1.2
74440;PMS7003;62870;54.692;25.284;2024-02-21T21:24:47;2;1.2;1.2
74440;PMS7003;62870;54.692;25.284;2024-02-21T21:29:37;2.6;2;1.6
74440;PMS7003;62870;54.692;25.284;2024-02-21T21:35:03;1.8;1.6;1.4
74440;PMS7003;62870;54.692;25.284;2024-02-21T21:39:27;1.8;1.6;1.4
74440;PMS7003;62870;54.692;25.284;2024-02-21T21:44:47;1.4;1.2;1
74440;PMS7003;62870;54.692;25.284;2024-02-21T21:49:13;1.4;1.2;1
74440;PMS7003;62870;54.692;25.284;2024-02-21T21:55:03;2;1.8;1.4
74440;PMS7003;62870;54.692;25.284;2024-02-21T21:59:27;2;1.8;1.4
74440;PMS7003;62870;54.692;25.284;2024-02-21T22:04:13;1.3;1.3;0.8
74440;PMS7003;62870;54.692;25.284;2024-02-21T22:09:47;1.8;1.8;1.2
74440;PMS7003;62870;54.692;25.284;2024-02-21T22:14:27;1.2;1.2;1
74440;PMS7003;62870;54.692;25.284;2024-02-21T22:19:47;1.6;1.4;0.8
74440;PMS7003;62870;54.692;25.284;2024-02-21T22:25:03;1.4;1.4;1
74440;PMS7003;62870;54.692;25.284;2024-02-21T22:30:05;2.2;1.6;1.2
74440;PMS7003;62870;54.692;25.284;2024-02-21T22:34:13;2.2;1.6;1.2
74440;PMS7003;62870;54.692;25.284;2024-02-21T22:39:55;1.2;0.8;0.6
74440;PMS7003;62870;54.692;25.284;2024-02-21T22:44:39;0.8;0.8;0.4
74440;PMS7003;62870;54.692;25.284;2024-02-21T22:49:31;1.2;1.2;1
74440;PMS7003;62870;54.692;25.284;2024-02-21T22:54:21;1;0.6;0.4
74440;PMS7003;62870;54.692;25.284;2024-02-21T22:59:41;1.8;0.8;0.8
74440;PMS7003;62870;54.692;25.284;2024-02-21T23:04:39;0.8;0.3;0.3
74440;PMS7003;62870;54.692;25.284;2024-02-21T23:09:55;1;1;0.6
74440;PMS7003;62870;54.692;25.284;2024-02-21T23:14:45;1.2;1.2;0.8
74440;PMS7003;62870;54.692;25.284;2024-02-21T23:20:06;0.6;0.6;0.4
74440;PMS7003;62870;54.692;25.284;2024-02-21T23:25:05;0.8;0.8;0.6
74440;PMS7003;62870;54.692;25.284;2024-02-21T23:29:45;0.8;0.8;0.6
74440;PMS7003;62870;54.692;25.284;2024-02-21T23:35:06;1;0.8;0.6
74440;PMS7003;62870;54.692;25.284;2024-02-21T23:39:13;1;0.8;0.6
74440;PMS7003;62870;54.692;25.284;2024-02-21T23:44:13;1;1;1
74440;PMS7003;62870;54.692;25.284;2024-02-21T23:49:55;1;1;0.4
74440;PMS7003;62870;54.692;25.284;2024-02-21T23:54:13;1.8;1.4;0.8
74440;PMS7003;62870;54.692;25.284;2024-02-21T23:59:49;1.6;1.6;1.4
